Time;durP1;ratioP1;P1;durP2;ratioP2;P2;SDS_P1;SDS_P2;PMS_P1;PMS_P2;Temp;Humidity;BMP_temperature;BMP_pressure;BME280_temperature;BME280_humidity;BME280_pressure;Samples;Min_cycle;Max_cycle;Signal;HPM_P1;HPM_P2
2021/11/30 00:01:15;;;;;;;8.40;1.52;;;;;;;5.42;80.55;100907.59;5053962;28;20025;-41
2021/11/30 00:03:41;;;;;;;10.07;1.88;;;;;;;5.39;81.80;100901.72;5048367;28;20065;-41
2021/11/30 00:06:07;;;;;;;12.23;2.00;;;;;;;5.38;83.05;100892.88;5034961;28;20033;-42
2021/11/30 00:08:34;;;;;;;13.45;2.83;;;;;;;5.34;83.17;100888.81;5037961;28;20421;-43
2021/11/30 00:11:04;;;;;;;15.35;2.47;;;;;;;5.31;85.00;100883.78;5053185;28;20028;-43
2021/11/30 00:13:31;;;;;;;13.48;2.42;;;;;;;5.27;86.63;100875.22;5053624;28;20500;-43
2021/11/30 00:15:57;;;;;;;11.77;3.00;;;;;;;5.25;87.57;100868.34;5063642;28;20100;-44
2021/11/30 00:18:29;;;;;;;15.93;2.55;;;;;;;5.23;88.22;100865.00;5054909;28;20017;-43
2021/11/30 00:20:55;;;;;;;15.50;3.13;;;;;;;5.21;89.08;100861.63;5054880;28;20032;-43
2021/11/30 00:23:20;;;;;;;10.18;2.97;;;;;;;5.21;90.00;100850.94;5048896;28;20022;-43
2021/11/30 00:25:46;;;;;;;18.25;3.40;;;;;;;5.21;90.17;100853.63;5034728;28;20021;-44
2021/11/30 00:28:11;;;;;;;15.02;3.00;;;;;;;5.23;90.58;100843.66;5034737;28;20112;-43
2021/11/30 00:30:37;;;;;;;15.75;3.30;;;;;;;5.28;91.04;100820.03;5040579;28;20035;-43
2021/11/30 00:33:03;;;;;;;12.38;3.50;;;;;;;5.27;91.83;100832.53;5052222;28;20029;-43
2021/11/30 00:35:29;;;;;;;18.40;3.40;;;;;;;5.33;92.36;100828.44;5034121;28;20037;-44
2021/11/30 00:37:55;;;;;;;22.55;3.63;;;;;;;5.35;93.19;100826.47;5033157;28;20049;-43
2021/11/30 00:40:21;;;;;;;17.75;3.33;;;;;;;5.35;93.76;100826.47;5034361;28;20021;-43
2021/11/30 00:42:46;;;;;;;22.42;4.50;;;;;;;5.38;94.22;100810.16;5034477;28;20497;-42
2021/11/30 00:45:17;;;;;;;17.27;3.45;;;;;;;5.39;94.47;100814.47;5049484;28;20076;-43
2021/11/30 00:47:48;;;;;;;30.73;4.70;;;;;;;5.39;94.67;100811.81;5034734;28;20033;-41
2021/11/30 00:50:14;;;;;;;20.17;4.25;;;;;;;5.39;95.32;100805.66;5040982;28;20065;-40
2021/11/30 00:52:39;;;;;;;24.05;4.55;;;;;;;5.38;95.65;100804.81;5035953;28;20025;-43
2021/11/30 00:55:05;;;;;;;20.15;4.88;;;;;;;5.41;96.04;100803.69;5046822;28;20032;-43
2021/11/30 00:57:31;;;;;;;16.40;4.90;;;;;;;5.43;96.14;100802.53;5053878;28;20487;-43
2021/11/30 00:59:56;;;;;;;25.35;6.00;;;;;;;5.43;96.73;100794.53;5055931;28;20128;-41
2021/11/30 01:02:22;;;;;;;20.13;5.32;;;;;;;5.44;96.80;100777.50;5059805;28;20116;-42
2021/11/30 01:04:47;;;;;;;24.35;5.70;;;;;;;5.46;97.08;100780.88;5058099;28;20079;-42
2021/11/30 01:07:13;;;;;;;23.10;5.63;;;;;;;5.48;97.49;100775.41;5058727;28;20028;-41
2021/11/30 01:09:42;;;;;;;21.95;5.70;;;;;;;5.50;97.56;100776.94;5061756;28;20033;-41
2021/11/30 01:12:08;;;;;;;20.25;5.93;;;;;;;5.57;97.88;100773.66;5061962;28;20489;-41
2021/11/30 01:14:33;;;;;;;17.73;6.45;;;;;;;5.58;98.00;100764.63;5068163;28;20119;-41
2021/11/30 01:16:59;;;;;;;26.02;6.05;;;;;;;5.66;98.34;100762.91;5064767;28;20025;-41
2021/11/30 01:19:25;;;;;;;22.50;6.57;;;;;;;5.69;98.46;100757.25;5060418;28;20049;-41
2021/11/30 01:21:51;;;;;;;22.63;6.22;;;;;;;5.77;98.83;100753.81;5058678;28;20036;-41
2021/11/30 01:24:16;;;;;;;19.83;6.40;;;;;;;5.83;98.95;100761.22;5055689;28;20388;-43
2021/11/30 01:26:41;;;;;;;18.48;6.55;;;;;;;5.87;99.09;100765.28;5056616;28;20025;-41
2021/11/30 01:29:07;;;;;;;26.42;6.45;;;;;;;5.99;99.21;100759.72;5057162;28;20033;-40
2021/11/30 01:31:33;;;;;;;17.95;6.50;;;;;;;6.03;99.45;100761.06;5058453;28;20028;-43
2021/11/30 01:33:58;;;;;;;21.27;6.45;;;;;;;6.07;99.44;100762.47;5037042;28;20041;-44
2021/11/30 01:36:23;;;;;;;20.83;5.90;;;;;;;6.13;99.73;100751.13;5037829;28;20041;-44
2021/11/30 01:38:49;;;;;;;21.38;6.70;;;;;;;6.18;99.74;100759.53;5037248;28;20136;-43
2021/11/30 01:41:15;;;;;;;28.73;7.72;;;;;;;6.26;99.90;100754.25;5034847;28;20018;-45
2021/11/30 01:43:44;;;;;;;26.70;6.47;;;;;;;6.32;100.00;100750.97;5034131;28;20026;-44
2021/11/30 01:46:13;;;;;;;25.85;7.90;;;;;;;6.37;100.00;100767.38;5049437;28;20459;-44
2021/11/30 01:51:24;;;;;;;32.92;7.50;;;;;;;6.45;100.00;100739.00;5054234;28;20538;-46
2021/11/30 01:53:50;;;;;;;24.25;6.72;;;;;;;6.50;100.00;100742.91;5055993;28;20025;-47
2021/11/30 01:56:16;;;;;;;24.17;7.47;;;;;;;6.53;100.00;100744.38;5041105;28;20440;-44
2021/11/30 01:58:42;;;;;;;35.53;8.48;;;;;;;6.56;100.00;100744.09;5035199;28;20065;-44
2021/11/30 02:01:08;;;;;;;20.65;8.02;;;;;;;6.55;100.00;100747.75;5032413;28;20037;-45
2021/11/30 02:03:34;;;;;;;21.30;8.30;;;;;;;6.56;100.00;100736.91;5035198;28;20029;-47
2021/11/30 02:06:00;;;;;;;24.02;8.52;;;;;;;6.56;100.00;100741.44;5034507;28;20021;-46
2021/11/30 02:08:25;;;;;;;25.33;8.65;;;;;;;6.58;100.00;100726.91;5036081;28;20504;-48
2021/11/30 02:10:54;;;;;;;18.67;8.18;;;;;;;6.61;100.00;100739.13;5037565;28;20030;-45
2021/11/30 02:13:19;;;;;;;27.00;7.85;;;;;;;6.65;100.00;100719.06;5055096;28;20024;-44
2021/11/30 02:15:49;;;;;;;23.52;7.20;;;;;;;6.70;100.00;100716.75;5053512;28;20025;-43
2021/11/30 02:18:21;;;;;;;22.42;6.97;;;;;;;6.71;100.00;100717.59;5057394;28;20043;-46
2021/11/30 02:20:47;;;;;;;28.45;7.82;;;;;;;6.73;100.00;100704.91;5056301;28;20119;-45
2021/11/30 02:23:30;;;;;;;26.55;7.57;;;;;;;6.76;100.00;100707.25;5041326;28;20053;-46
2021/11/30 02:25:56;;;;;;;21.08;6.20;;;;;;;6.80;100.00;100708.63;5033745;28;20040;-45
2021/11/30 02:28:21;;;;;;;26.80;7.43;;;;;;;6.82;100.00;100706.63;5032542;28;20029;-45
2021/11/30 02:30:47;;;;;;;19.27;6.18;;;;;;;6.85;99.88;100703.63;5014719;28;20021;-44
2021/11/30 02:33:12;;;;;;;22.75;6.53;;;;;;;6.84;100.00;100704.59;5032361;28;20473;-44
2021/11/30 02:35:37;;;;;;;25.05;6.07;;;;;;;6.86;100.00;100704.44;5032132;28;20017;-44
2021/11/30 02:38:07;;;;;;;23.45;5.78;;;;;;;6.88;100.00;100691.75;5031898;28;20119;-43
2021/11/30 02:40:33;;;;;;;37.45;6.00;;;;;;;6.87;99.77;100698.09;5032188;28;20507;-44
2021/11/30 02:42:59;;;;;;;18.17;4.65;;;;;;;6.90;99.93;100697.75;5030688;28;20026;-44
2021/11/30 02:45:24;;;;;;;39.58;7.15;;;;;;;6.90;100.00;100690.59;5030635;28;20509;-44
2021/11/30 02:47:49;;;;;;;20.98;4.97;;;;;;;6.93;99.85;100682.25;5047870;28;20143;-43
2021/11/30 02:50:15;;;;;;;34.65;5.53;;;;;;;6.97;99.68;100693.44;5036867;28;20028;-44
2021/11/30 02:52:40;;;;;;;28.77;5.28;;;;;;;6.95;99.66;100666.00;5042634;28;20078;-44
2021/11/30 02:55:06;;;;;;;18.80;4.97;;;;;;;6.98;99.51;100681.78;5035226;28;20063;-44
2021/11/30 02:57:31;;;;;;;22.00;4.45;;;;;;;6.99;99.41;100672.72;5047613;28;20032;-44
2021/11/30 02:59:56;;;;;;;16.90;3.97;;;;;;;7.02;99.46;100667.03;5055829;28;20021;-45
2021/11/30 03:02:25;;;;;;;23.30;5.50;;;;;;;7.03;99.46;100669.56;5055852;28;20033;-44
2021/11/30 03:04:53;;;;;;;15.52;3.67;;;;;;;7.03;99.84;100668.75;5055333;28;20036;-45
2021/11/30 03:07:22;;;;;;;21.67;3.88;;;;;;;7.10;99.48;100660.88;5048085;28;20021;-44
2021/11/30 03:09:47;;;;;;;22.83;3.95;;;;;;;7.10;99.88;100669.75;5048928;28;20041;-48
2021/11/30 03:12:13;;;;;;;20.17;4.90;;;;;;;7.11;100.00;100660.72;5055828;28;20033;-44
2021/11/30 03:14:38;;;;;;;23.80;4.45;;;;;;;7.13;100.00;100642.66;5061663;28;20037;-45
2021/11/30 03:17:04;;;;;;;16.85;4.25;;;;;;;7.18;99.85;100644.84;5060512;28;20075;-44
2021/11/30 03:19:30;;;;;;;13.82;3.67;;;;;;;7.18;99.95;100648.34;5057775;28;20060;-47
2021/11/30 03:21:56;;;;;;;13.77;3.38;;;;;;;7.22;100.00;100662.25;5055620;28;20029;-45
2021/11/30 03:24:22;;;;;;;23.65;4.28;;;;;;;7.20;100.00;100641.00;5060838;28;20087;-47
2021/11/30 03:26:47;;;;;;;30.25;5.35;;;;;;;7.22;100.00;100647.03;5064473;28;20071;-45
2021/11/30 03:29:13;;;;;;;16.38;4.05;;;;;;;7.25;100.00;100646.69;5057049;28;20414;-44
2021/11/30 03:34:08;;;;;;;18.85;5.50;;;;;;;7.30;100.00;100635.50;5055285;28;20385;-45
2021/11/30 03:36:35;;;;;;;25.35;5.93;;;;;;;7.33;100.00;100639.69;5055197;28;20047;-44
2021/11/30 03:39:03;;;;;;;23.67;6.32;;;;;;;7.31;99.73;100633.66;5054896;28;20378;-45
2021/11/30 03:41:31;;;;;;;35.60;7.15;;;;;;;7.33;100.00;100639.69;5054810;28;20090;-44
2021/11/30 03:43:57;;;;;;;34.42;7.13;;;;;;;7.34;100.00;100633.31;5055086;28;20459;-44
2021/11/30 03:46:22;;;;;;;31.67;7.78;;;;;;;7.34;100.00;100638.66;5055026;28;20017;-44
2021/11/30 03:48:47;;;;;;;28.95;7.20;;;;;;;7.36;100.00;100631.31;5047013;28;20041;-47
2021/11/30 03:51:13;;;;;;;26.52;8.27;;;;;;;7.37;100.00;100630.31;5017034;28;20448;-46
2021/11/30 03:53:38;;;;;;;33.72;8.55;;;;;;;7.37;100.00;100628.47;5038555;28;20048;-44
2021/11/30 03:56:04;;;;;;;32.55;7.55;;;;;;;7.42;100.00;100627.97;5055113;28;20099;-44
2021/11/30 03:58:29;;;;;;;33.42;8.45;;;;;;;7.43;100.00;100626.97;5055118;28;20029;-44
2021/11/30 04:00:55;;;;;;;36.00;9.20;;;;;;;7.47;100.00;100639.00;5055012;28;20424;-44
2021/11/30 04:03:23;;;;;;;33.60;8.65;;;;;;;7.50;100.00;100632.50;5054940;28;20017;-44
2021/11/30 04:05:48;;;;;;;30.45;8.60;;;;;;;7.52;100.00;100625.13;5035108;28;20022;-44
2021/11/30 04:08:13;;;;;;;30.52;8.60;;;;;;;7.57;100.00;100618.25;5034930;28;20101;-45
2021/11/30 04:10:39;;;;;;;30.58;9.15;;;;;;;7.55;100.00;100622.09;5034999;28;20033;-45
2021/11/30 04:13:04;;;;;;;35.92;9.88;;;;;;;7.58;100.00;100635.16;5035310;28;20100;-45
2021/11/30 04:15:29;;;;;;;37.88;9.88;;;;;;;7.59;100.00;100618.09;5048128;28;20115;-45
2021/11/30 04:17:55;;;;;;;31.15;10.68;;;;;;;7.58;99.94;100628.00;5054745;28;20031;-44
2021/11/30 04:20:20;;;;;;;41.47;11.10;;;;;;;7.61;100.00;100619.63;5054759;28;20025;-45
2021/11/30 04:22:46;;;;;;;44.83;10.95;;;;;;;7.63;100.00;100617.56;5054984;28;20108;-44
2021/11/30 04:25:12;;;;;;;38.67;9.77;;;;;;;7.65;100.00;100614.75;5053192;28;20057;-45
2021/11/30 04:27:38;;;;;;;36.85;10.32;;;;;;;7.66;100.00;100621.75;5054852;28;20508;-45
2021/11/30 04:30:05;;;;;;;44.97;10.23;;;;;;;7.68;100.00;100617.91;5054924;28;20060;-45
2021/11/30 04:32:31;;;;;;;36.80;10.02;;;;;;;7.70;100.00;100612.41;5054208;28;20033;-44
2021/11/30 04:34:57;;;;;;;27.63;8.55;;;;;;;7.73;100.00;100600.50;5052458;28;20025;-45
2021/11/30 04:37:22;;;;;;;31.15;8.27;;;;;;;7.73;100.00;100601.34;5053719;28;20527;-43
2021/11/30 04:39:47;;;;;;;38.97;8.70;;;;;;;7.75;100.00;100609.22;5054097;28;20104;-43
2021/11/30 04:42:13;;;;;;;42.33;9.57;;;;;;;7.77;99.78;100607.22;5053713;28;20021;-44
2021/11/30 04:44:45;;;;;;;34.75;8.25;;;;;;;7.77;100.00;100597.34;5048974;28;20029;-45
2021/11/30 04:47:11;;;;;;;31.98;7.40;;;;;;;7.81;100.00;100595.97;5032526;28;20090;-43
2021/11/30 04:49:54;;;;;;;30.10;8.05;;;;;;;7.79;100.00;100595.28;5035605;28;20484;-44
2021/11/30 04:52:20;;;;;;;35.17;8.10;;;;;;;7.82;100.00;100584.25;5053863;28;20029;-44
2021/11/30 04:54:45;;;;;;;35.97;8.05;;;;;;;7.81;100.00;100592.47;5040300;28;20034;-44
2021/11/30 04:57:11;;;;;;;35.45;9.23;;;;;;;7.81;100.00;100592.47;5034704;28;20029;-45
2021/11/30 04:59:36;;;;;;;37.10;9.93;;;;;;;7.81;100.00;100576.38;5033706;28;20421;-44
2021/11/30 05:02:02;;;;;;;35.53;9.70;;;;;;;7.85;100.00;100588.44;5032186;28;20411;-44
2021/11/30 05:04:29;;;;;;;39.03;9.98;;;;;;;7.88;100.00;100582.75;5033709;28;20033;-43
2021/11/30 05:06:54;;;;;;;34.10;10.45;;;;;;;7.85;100.00;100578.56;5034771;28;20068;-43
2021/11/30 05:09:20;;;;;;;36.05;9.45;;;;;;;7.85;99.86;100588.44;5033308;28;20057;-42
2021/11/30 05:11:45;;;;;;;35.58;9.48;;;;;;;7.85;100.00;100591.97;5033486;28;20029;-42
2021/11/30 05:14:10;;;;;;;37.13;9.32;;;;;;;7.87;99.78;100589.94;5033235;28;20396;-43
2021/11/30 05:16:36;;;;;;;32.25;9.43;;;;;;;7.90;100.00;100586.09;5044561;28;20496;-42
2021/11/30 05:19:02;;;;;;;33.80;8.13;;;;;;;7.91;100.00;100582.41;5050253;28;20487;-41
2021/11/30 05:21:27;;;;;;;39.88;8.15;;;;;;;7.93;99.87;100583.06;5052429;28;20361;-42
2021/11/30 05:23:59;;;;;;;37.90;8.45;;;;;;;7.96;100.00;100585.41;5047755;28;20099;-41
2021/11/30 05:26:25;;;;;;;34.78;8.50;;;;;;;7.99;100.00;100586.91;5033546;28;20115;-41
2021/11/30 05:28:50;;;;;;;38.80;9.88;;;;;;;7.99;99.74;100578.88;5033346;28;20119;-41
2021/11/30 05:31:15;;;;;;;36.90;8.88;;;;;;;8.00;99.94;100588.56;5033309;28;20021;-41
2021/11/30 05:33:41;;;;;;;40.33;9.20;;;;;;;7.99;99.94;100585.06;5033252;28;20025;-41
2021/11/30 05:36:07;;;;;;;46.60;9.52;;;;;;;8.03;99.59;100585.53;5039618;28;20037;-41
2021/11/30 05:38:33;;;;;;;56.22;10.38;;;;;;;8.04;99.79;100582.69;5053004;28;20041;-41
2021/11/30 05:40:59;;;;;;;50.70;8.85;;;;;;;8.04;99.22;100580.03;5048900;28;20072;-41
2021/11/30 05:43:24;;;;;;;39.78;8.70;;;;;;;8.07;99.24;100592.25;5043256;28;20068;-41
2021/11/30 05:45:50;;;;;;;36.50;8.25;;;;;;;8.11;99.29;100588.22;5046633;28;20139;-42
2021/11/30 05:48:16;;;;;;;35.15;7.35;;;;;;;8.10;99.00;100584.69;5053048;28;20033;-42
2021/11/30 05:50:42;;;;;;;39.53;8.63;;;;;;;8.12;99.01;100589.88;5051228;28;20548;-41
2021/11/30 05:53:08;;;;;;;28.90;7.88;;;;;;;8.14;98.57;100583.34;5032959;28;20148;-41
2021/11/30 05:55:34;;;;;;;39.00;8.63;;;;;;;8.13;98.60;100592.38;5031921;28;20041;-41
2021/11/30 05:58:00;;;;;;;35.67;7.47;;;;;;;8.17;98.50;100586.69;5032757;28;20567;-41
2021/11/30 06:00:28;;;;;;;36.25;7.32;;;;;;;8.20;98.63;100594.38;5032759;28;20021;-41
2021/11/30 06:02:57;;;;;;;33.15;7.68;;;;;;;8.23;98.27;100594.88;5034970;28;20059;-41
2021/11/30 06:05:24;;;;;;;36.28;7.15;;;;;;;8.22;97.94;100600.41;5041443;28;20026;-40
2021/11/30 06:07:50;;;;;;;40.87;8.70;;;;;;;8.30;97.76;100584.31;5031170;28;20121;-42
2021/11/30 06:10:16;;;;;;;37.55;6.88;;;;;;;8.29;97.59;100596.00;5033278;28;20116;-42
2021/11/30 06:12:41;;;;;;;34.33;6.13;;;;;;;8.31;97.16;100589.47;5036247;28;20033;-42
2021/11/30 06:15:07;;;;;;;26.75;6.25;;;;;;;8.34;97.02;100599.00;5032509;28;20053;-42
2021/11/30 06:17:32;;;;;;;27.67;5.90;;;;;;;8.35;96.90;100593.50;5033932;28;20076;-42
2021/11/30 06:19:57;;;;;;;24.63;5.65;;;;;;;8.35;96.98;100580.09;5032627;28;20536;-42
2021/11/30 06:22:23;;;;;;;29.02;5.88;;;;;;;8.39;96.85;100591.31;5032735;28;20029;-42
2021/11/30 06:24:48;;;;;;;25.10;5.32;;;;;;;8.40;96.99;100582.28;5033882;28;20033;-42
2021/11/30 06:27:13;;;;;;;27.88;5.65;;;;;;;8.43;96.73;100576.56;5052650;28;20024;-42
2021/11/30 06:29:39;;;;;;;47.63;5.53;;;;;;;8.44;96.53;100591.63;5064355;28;20024;-40
2021/11/30 06:32:04;;;;;;;29.73;5.18;;;;;;;8.49;96.38;100581.22;5049811;28;20032;-41
2021/11/30 06:34:30;;;;;;;33.60;5.45;;;;;;;8.47;96.32;100598.50;5045501;28;20033;-42
2021/11/30 06:36:55;;;;;;;35.63;6.15;;;;;;;8.49;96.75;100583.06;5045422;28;20033;-42
2021/11/30 06:39:22;;;;;;;35.03;5.60;;;;;;;8.54;96.27;100594.94;5050995;28;20551;-42
2021/11/30 06:41:47;;;;;;;25.05;4.97;;;;;;;8.54;96.21;100607.53;5047110;28;20117;-42
2021/11/30 06:44:12;;;;;;;35.42;5.80;;;;;;;8.53;96.62;100603.16;5046125;28;20037;-42
2021/11/30 06:46:38;;;;;;;29.75;5.88;;;;;;;8.55;96.17;100601.97;5048764;28;20021;-42
2021/11/30 06:49:03;;;;;;;27.20;4.88;;;;;;;8.63;96.03;100593.03;5044363;28;20392;-42
2021/11/30 06:51:29;;;;;;;20.70;4.45;;;;;;;8.66;95.91;100599.91;5048621;28;20021;-43
2021/11/30 06:53:54;;;;;;;27.08;5.38;;;;;;;8.65;95.71;100607.13;5050552;28;20029;-42
2021/11/30 06:56:20;;;;;;;27.30;4.88;;;;;;;8.72;95.31;100601.91;5052862;28;20371;-42
2021/11/30 06:58:45;;;;;;;24.88;5.07;;;;;;;8.79;95.29;100603.72;5050022;28;20070;-42
2021/11/30 07:01:12;;;;;;;29.67;4.60;;;;;;;8.75;95.14;100613.13;5049144;28;20119;-42
2021/11/30 07:03:38;;;;;;;24.55;4.60;;;;;;;8.78;95.20;100611.94;5043533;28;20021;-42
2021/11/30 07:06:15;;;;;;;22.27;4.22;;;;;;;8.77;95.58;100619.16;5051173;28;20362;-43
2021/11/30 07:11:21;;;;;;;30.77;5.10;;;;;;;8.78;95.79;100615.44;5050029;28;20043;-42
2021/11/30 07:13:47;;;;;;;31.10;5.32;;;;;;;8.75;96.15;100606.94;5050744;28;20741;-42
2021/11/30 07:16:12;;;;;;;38.55;5.00;;;;;;;8.72;96.24;100609.97;5050005;28;20376;-42
2021/11/30 07:18:37;;;;;;;29.35;5.43;;;;;;;8.75;96.52;100612.28;5048763;28;20021;-42
2021/11/30 07:21:03;;;;;;;40.13;5.50;;;;;;;8.71;96.59;100606.41;5050658;28;20045;-42
2021/11/30 07:23:30;;;;;;;46.55;6.00;;;;;;;8.70;96.75;100620.03;5050465;28;20048;-42
2021/11/30 07:25:56;;;;;;;27.27;5.13;;;;;;;8.72;96.86;100612.66;5050796;28;20102;-43
2021/11/30 07:28:30;;;;;;;28.45;4.78;;;;;;;8.71;97.26;100613.63;5049682;28;20029;-42
2021/11/30 07:31:09;;;;;;;24.23;5.18;;;;;;;8.73;97.41;100619.66;5043323;28;20029;-41
2021/11/30 07:33:37;;;;;;;32.75;5.63;;;;;;;8.74;97.27;100626.69;5048394;28;20028;-41
2021/11/30 07:36:04;;;;;;;34.25;5.32;;;;;;;8.73;97.14;100622.34;5050892;28;20025;-41
2021/11/30 07:38:30;;;;;;;33.08;4.70;;;;;;;8.74;97.45;100618.66;5049871;28;20084;-42
2021/11/30 07:40:55;;;;;;;22.60;4.57;;;;;;;8.75;97.57;100637.28;5051832;28;20476;-42
2021/11/30 07:43:20;;;;;;;26.85;5.20;;;;;;;8.76;97.02;100635.41;5049212;28;20040;-42
2021/11/30 07:45:46;;;;;;;30.23;4.93;;;;;;;8.74;96.88;100634.75;5049117;28;20401;-42
2021/11/30 07:48:11;;;;;;;22.67;5.07;;;;;;;8.73;96.86;100631.22;5042890;28;20032;-42
2021/11/30 07:50:37;;;;;;;35.67;5.43;;;;;;;8.77;97.03;100632.56;5046613;28;20123;-43
2021/11/30 07:53:03;;;;;;;27.05;5.82;;;;;;;8.82;96.99;100631.19;5054106;28;20416;-41
2021/11/30 07:55:28;;;;;;;34.47;5.43;;;;;;;8.82;96.86;100637.41;5055493;28;20048;-42
2021/11/30 07:57:54;;;;;;;34.60;5.57;;;;;;;8.84;96.57;100637.22;5054292;28;20029;-42
2021/11/30 08:00:20;;;;;;;21.73;4.55;;;;;;;8.89;96.37;100634.84;5054066;28;20032;-42
2021/11/30 08:02:46;;;;;;;27.38;5.30;;;;;;;8.89;95.85;100630.31;5051091;28;20021;-41
2021/11/30 08:05:13;;;;;;;29.25;4.75;;;;;;;8.90;96.02;100632.00;5052534;28;20120;-41
2021/11/30 08:07:39;;;;;;;35.13;5.00;;;;;;;8.92;95.93;100634.50;5052648;28;20082;-42
2021/11/30 08:10:12;;;;;;;29.25;4.63;;;;;;;8.92;95.74;100639.88;5054814;28;20031;-41
2021/11/30 08:12:37;;;;;;;22.73;4.63;;;;;;;8.90;95.95;100648.09;5053573;28;20028;-42
2021/11/30 08:15:03;;;;;;;29.02;4.85;;;;;;;8.93;95.62;100650.44;5024012;28;20401;-43
2021/11/30 08:17:28;;;;;;;18.67;4.22;;;;;;;8.96;95.97;100636.66;5033156;28;20037;-42
2021/11/30 08:19:54;;;;;;;32.53;4.75;;;;;;;8.95;95.79;100637.69;5032984;28;20032;-42
2021/11/30 08:22:19;;;;;;;44.45;5.53;;;;;;;8.99;95.73;100641.66;5049861;28;20037;-42
2021/11/30 08:24:45;;;;;;;26.00;5.28;;;;;;;8.99;95.43;100641.66;5036024;28;20100;-41
2021/11/30 08:27:11;;;;;;;28.65;4.97;;;;;;;9.01;95.36;100641.50;5046842;28;20380;-41
2021/11/30 08:29:39;;;;;;;32.55;4.30;;;;;;;9.08;94.72;100638.94;5051881;28;20025;-41
2021/11/30 08:32:09;;;;;;;32.13;5.32;;;;;;;9.08;94.67;100636.25;5036809;28;20029;-42
2021/11/30 08:34:38;;;;;;;29.42;4.85;;;;;;;9.06;94.42;100638.25;5054034;28;20029;-43
2021/11/30 08:37:04;;;;;;;28.55;4.60;;;;;;;9.05;94.93;100650.03;5044671;28;20033;-43
2021/11/30 08:39:30;;;;;;;30.27;4.03;;;;;;;9.12;94.47;100624.16;5033003;28;20038;-43
2021/11/30 08:41:56;;;;;;;32.88;4.78;;;;;;;9.13;94.21;100644.59;5034147;28;20021;-43
2021/11/30 08:44:22;;;;;;;29.65;4.63;;;;;;;9.11;94.37;100646.63;5033006;28;20028;-42
2021/11/30 08:46:47;;;;;;;29.10;4.68;;;;;;;9.12;94.13;100642.94;5043395;28;20032;-42
2021/11/30 08:49:13;;;;;;;20.65;3.63;;;;;;;9.12;94.28;100649.16;5052747;28;20025;-41
2021/11/30 08:51:38;;;;;;;27.00;4.10;;;;;;;9.16;94.21;100649.63;5052466;28;20083;-42
2021/11/30 08:54:03;;;;;;;25.05;4.65;;;;;;;9.17;93.98;100659.38;5053332;28;20401;-43
2021/11/30 08:56:29;;;;;;;23.58;3.85;;;;;;;9.21;93.96;100649.91;5036283;28;20022;-42
2021/11/30 08:58:54;;;;;;;24.65;3.50;;;;;;;9.20;93.70;100661.69;5053837;28;20028;-42
2021/11/30 09:01:19;;;;;;;29.38;4.20;;;;;;;9.21;94.17;100660.66;5047684;28;20018;-42
2021/11/30 09:03:45;;;;;;;21.73;4.32;;;;;;;9.19;94.05;100660.03;5033903;28;20084;-43
2021/11/30 09:06:10;;;;;;;31.02;4.95;;;;;;;9.17;94.50;100664.72;5046537;28;20032;-43
2021/11/30 09:08:36;;;;;;;30.23;4.30;;;;;;;9.16;94.28;100663.91;5052625;28;20473;-41
2021/11/30 09:11:01;;;;;;;23.45;3.80;;;;;;;9.22;94.30;100663.19;5053686;28;20041;-43
2021/11/30 09:13:27;;;;;;;24.73;4.82;;;;;;;9.25;94.03;100662.00;5046002;28;20029;-42
2021/11/30 09:15:52;;;;;;;26.92;4.53;;;;;;;9.27;94.23;100654.59;5044381;28;20026;-42
2021/11/30 09:18:17;;;;;;;38.08;4.60;;;;;;;9.26;93.79;100677.09;5035873;28;20066;-42
2021/11/30 09:20:43;;;;;;;29.60;4.20;;;;;;;9.27;93.86;100670.72;5044027;28;20036;-42
2021/11/30 09:23:08;;;;;;;21.73;3.97;;;;;;;9.33;93.86;100672.69;5033670;28;20025;-41
2021/11/30 09:25:33;;;;;;;38.85;5.63;;;;;;;9.36;93.56;100683.06;5036287;28;20037;-41
2021/11/30 09:28:01;;;;;;;26.05;5.18;;;;;;;9.35;94.11;100672.50;5041197;28;20025;-42
2021/11/30 09:30:28;;;;;;;30.98;5.32;;;;;;;9.41;93.93;100679.84;5036261;28;20155;-42
2021/11/30 09:32:54;;;;;;;36.03;4.68;;;;;;;9.36;94.19;100666.94;5052851;28;20048;-42
2021/11/30 09:35:22;;;;;;;21.60;4.45;;;;;;;9.33;94.67;100683.41;5043933;28;20465;-42
2021/11/30 09:37:50;;;;;;;28.00;4.82;;;;;;;9.30;95.03;100681.09;5054393;28;20048;-42
2021/11/30 09:40:18;;;;;;;24.55;4.10;;;;;;;9.29;95.02;100670.53;5051406;28;20065;-43
2021/11/30 09:42:44;;;;;;;37.70;4.85;;;;;;;9.28;95.08;100666.19;5038893;28;20487;-42
2021/11/30 09:45:11;;;;;;;45.03;5.40;;;;;;;9.26;95.56;100674.41;5052905;28;20162;-42
2021/11/30 09:47:37;;;;;;;22.20;4.07;;;;;;;9.29;95.62;100681.25;5043897;28;20060;-41
2021/11/30 09:50:04;;;;;;;30.40;5.43;;;;;;;9.31;95.15;100685.44;5045142;28;20044;-42
2021/11/30 09:52:29;;;;;;;29.08;5.35;;;;;;;9.33;95.44;100683.41;5047899;28;20037;-41
2021/11/30 09:54:55;;;;;;;32.92;4.97;;;;;;;9.33;95.65;100691.47;5047190;28;20037;-42
2021/11/30 09:57:21;;;;;;;39.00;5.13;;;;;;;9.36;95.73;100690.28;5047763;28;20070;-43
2021/11/30 09:59:47;;;;;;;24.58;3.92;;;;;;;9.41;95.13;100679.84;5051212;28;20455;-42
2021/11/30 10:02:13;;;;;;;35.22;4.97;;;;;;;9.42;94.96;100681.50;5052171;28;20035;-42
2021/11/30 10:04:40;;;;;;;35.60;4.82;;;;;;;9.44;94.79;100677.63;5039653;28;20033;-42
2021/11/30 10:07:05;;;;;;;26.85;4.53;;;;;;;9.48;94.66;100688.00;5051028;28;20042;-42
2021/11/30 10:09:31;;;;;;;23.63;4.10;;;;;;;9.49;95.05;100689.72;5047574;28;20036;-42
2021/11/30 10:12:08;;;;;;;40.75;5.00;;;;;;;9.45;95.07;100678.47;5052422;28;20021;-42
2021/11/30 10:14:36;;;;;;;34.78;5.22;;;;;;;9.48;94.97;100688.88;5052341;28;20094;-42
2021/11/30 10:17:08;;;;;;;22.10;4.53;;;;;;;9.44;94.87;100684.88;5040389;28;20028;-42
2021/11/30 10:19:33;;;;;;;27.67;4.53;;;;;;;9.45;94.95;100684.69;5035483;28;20040;-42
2021/11/30 10:21:58;;;;;;;28.60;4.82;;;;;;;9.43;95.41;100692.09;5048731;28;20021;-41
2021/11/30 10:24:24;;;;;;;28.15;5.10;;;;;;;9.40;95.92;100683.53;5052146;28;20032;-43
2021/11/30 10:26:49;;;;;;;31.60;4.88;;;;;;;9.38;96.19;100689.09;5046625;28;20029;-43
2021/11/30 10:29:17;;;;;;;29.88;5.85;;;;;;;9.36;96.26;100691.13;5051231;28;20519;-42
2021/11/30 10:31:48;;;;;;;34.65;5.50;;;;;;;9.35;96.38;100684.09;5033079;28;20112;-42
2021/11/30 10:34:24;;;;;;;32.78;5.32;;;;;;;9.35;96.55;100694.00;5040545;28;20029;-42
2021/11/30 10:36:59;;;;;;;33.75;5.25;;;;;;;9.32;96.71;100687.13;5038121;28;20109;-42
2021/11/30 10:39:28;;;;;;;33.88;5.65;;;;;;;9.29;97.16;100690.16;5031763;28;20042;-42
2021/11/30 10:42:12;;;;;;;26.38;5.40;;;;;;;9.31;96.95;100682.75;5031673;28;20017;-42
2021/11/30 10:44:37;;;;;;;34.70;5.78;;;;;;;9.31;97.16;100693.50;5032085;28;20447;-42
2021/11/30 10:47:08;;;;;;;39.83;5.85;;;;;;;9.32;97.33;100692.50;5038994;28;20100;-41
2021/11/30 10:49:33;;;;;;;25.80;5.60;;;;;;;9.32;97.13;100688.97;5045822;28;20041;-42
2021/11/30 10:52:00;;;;;;;24.02;5.53;;;;;;;9.28;97.51;100688.50;5033747;28;20028;-42
2021/11/30 10:54:37;;;;;;;30.10;5.20;;;;;;;9.35;97.47;100685.94;5051925;28;20126;-42
2021/11/30 10:57:04;;;;;;;26.63;4.57;;;;;;;9.37;97.37;100671.31;5049038;28;20033;-41
2021/11/30 10:59:29;;;;;;;31.13;6.00;;;;;;;9.36;97.28;100685.75;5045884;28;20374;-42
2021/11/30 11:01:55;;;;;;;26.13;4.68;;;;;;;9.40;96.78;100678.16;5027773;28;20040;-42
2021/11/30 11:04:28;;;;;;;31.63;6.43;;;;;;;9.38;96.93;100681.03;5046357;28;20018;-42
2021/11/30 11:07:13;;;;;;;28.23;5.00;;;;;;;9.38;97.33;100680.22;5041674;28;20036;-42
2021/11/30 11:09:43;;;;;;;31.30;6.40;;;;;;;9.37;97.36;100687.44;5032328;28;20036;-43
2021/11/30 11:12:10;;;;;;;29.98;5.05;;;;;;;9.37;97.46;100682.06;5032992;28;20446;-43
2021/11/30 11:14:47;;;;;;;32.45;5.25;;;;;;;9.42;97.41;100679.66;5061669;28;20028;-43
2021/11/30 11:17:29;;;;;;;34.67;5.20;;;;;;;9.42;96.80;100673.44;5075037;28;20082;-42
2021/11/30 11:19:55;;;;;;;36.60;6.10;;;;;;;9.47;96.94;100670.22;5075988;28;20108;-42
2021/11/30 11:22:23;;;;;;;23.73;4.45;;;;;;;9.45;96.64;100673.09;5075941;28;20052;-42
2021/11/30 11:24:50;;;;;;;30.38;4.43;;;;;;;9.42;96.71;100655.47;5054144;28;20028;-42
2021/11/30 11:27:17;;;;;;;33.90;5.03;;;;;;;9.40;96.99;100660.22;5055750;28;20071;-42